TimeMST,TemperatureF,Dew PointF,Humidity,Sea Level PressureIn,VisibilityMPH,Wind Direction,Wind SpeedMPH,Gust SpeedMPH,PrecipitationIn,Events,Conditions,WindDirDegrees,DateUTC
12:15 AM,14.5,5.4,67,30.34,10.0,NE,6.9,-,N/A,,Clear,40,2014-01-19 07:15:00
12:35 AM,13.8,5.7,70,30.34,10.0,Calm,Calm,-,N/A,,Clear,0,2014-01-19 07:35:00
12:55 AM,14.7,5.7,68,30.34,10.0,Calm,Calm,-,N/A,,Clear,0,2014-01-19 07:55:00
1:15 AM,13.8,5.2,69,30.34,10.0,NW,3.5,-,N/A,,Clear,320,2014-01-19 08:15:00
1:35 AM,13.5,5.5,71,30.34,10.0,NNW,5.8,-,N/A,,Clear,330,2014-01-19 08:35:00
1:55 AM,12.2,4.5,71,30.34,10.0,NNW,3.5,-,N/A,,Clear,330,2014-01-19 08:55:00
2:15 AM,12.6,5.0,72,30.34,10.0,Calm,Calm,-,N/A,,Clear,0,2014-01-19 09:15:00
2:35 AM,13.5,5.4,70,30.34,10.0,Calm,Calm,-,N/A,,Clear,0,2014-01-19 09:35:00
2:55 AM,13.5,5.4,70,30.34,10.0,North,3.5,-,N/A,,Clear,360,2014-01-19 09:55:00
3:15 AM,11.8,4.5,72,30.34,10.0,Calm,Calm,-,N/A,,Clear,0,2014-01-19 10:15:00
3:35 AM,11.5,4.5,73,30.34,10.0,North,3.5,-,N/A,,Clear,360,2014-01-19 10:35:00
3:55 AM,11.7,5.0,75,30.33,10.0,NNE,3.5,-,N/A,,Clear,30,2014-01-19 10:55:00
4:15 AM,12.0,5.9,76,30.32,10.0,NE,3.5,-,N/A,,Clear,50,2014-01-19 11:15:00
4:35 AM,12.2,5.7,75,30.32,10.0,NNE,3.5,-,N/A,,Clear,30,2014-01-19 11:35:00
4:55 AM,13.1,6.3,74,30.32,10.0,NE,3.5,-,N/A,,Clear,40,2014-01-19 11:55:00
5:15 AM,10.9,5.7,79,30.32,10.0,North,4.6,-,N/A,,Clear,10,2014-01-19 12:15:00
5:35 AM,12.6,6.3,76,30.32,10.0,Calm,Calm,-,N/A,,Clear,0,2014-01-19 12:35:00
5:55 AM,10.4,5.0,79,30.33,10.0,Calm,Calm,-,N/A,,Clear,0,2014-01-19 12:55:00
6:15 AM,10.8,5.5,79,30.33,10.0,Calm,Calm,-,N/A,,Clear,0,2014-01-19 13:15:00
6:35 AM,10.6,5.2,79,30.33,10.0,North,4.6,-,N/A,,Clear,10,2014-01-19 13:35:00
6:55 AM,10.4,5.4,80,30.33,10.0,North,4.6,-,N/A,,Clear,360,2014-01-19 13:55:00
7:15 AM,9.7,4.8,81,30.33,10.0,North,4.6,-,N/A,,Clear,10,2014-01-19 14:15:00
7:35 AM,12.4,6.1,76,30.33,10.0,Calm,Calm,-,N/A,,Clear,0,2014-01-19 14:35:00
7:55 AM,15.3,8.6,75,30.33,10.0,Calm,Calm,-,N/A,,Clear,0,2014-01-19 14:55:00
8:15 AM,19.2,10.2,68,30.34,10.0,Calm,Calm,-,N/A,,Clear,0,2014-01-19 15:15:00
8:35 AM,23.2,11.1,60,30.34,10.0,Calm,Calm,-,N/A,,Clear,0,2014-01-19 15:35:00
8:55 AM,28.0,12.7,53,30.34,10.0,ENE,3.5,-,N/A,,Clear,70,2014-01-19 15:55:00
9:15 AM,32.7,13.3,45,30.34,10.0,Calm,Calm,-,N/A,,Clear,0,2014-01-19 16:15:00
9:35 AM,35.4,13.1,40,30.34,10.0,Calm,Calm,-,N/A,,Clear,0,2014-01-19 16:35:00
9:55 AM,39.0,13.8,36,30.34,10.0,Calm,Calm,-,N/A,,Clear,0,2014-01-19 16:55:00
10:15 AM,42.1,13.3,31,30.34,10.0,Calm,Calm,-,N/A,,Clear,0,2014-01-19 17:15:00
10:35 AM,44.6,13.8,29,30.33,10.0,Calm,Calm,-,N/A,,Clear,0,2014-01-19 17:35:00
10:55 AM,45.9,13.5,27,30.32,10.0,SE,4.6,-,N/A,,Clear,140,2014-01-19 17:55:00
11:15 AM,47.5,13.6,26,30.31,10.0,Calm,Calm,-,N/A,,Clear,0,2014-01-19 18:15:00
11:35 AM,52.7,13.1,21,30.28,10.0,West,15.0,19.6,N/A,,Clear,270,2014-01-19 18:35:00
11:55 AM,55.0,10.2,17,30.26,10.0,West,16.1,23.0,N/A,,Clear,280,2014-01-19 18:55:00
12:15 PM,55.8,9.5,16,30.25,10.0,West,19.6,24.2,N/A,,Clear,280,2014-01-19 19:15:00
12:35 PM,55.8,9.3,16,30.23,10.0,West,15.0,24.2,N/A,,Clear,280,2014-01-19 19:35:00
12:55 PM,56.3,9.5,16,30.22,10.0,West,19.6,24.2,N/A,,Clear,280,2014-01-19 19:55:00
1:15 PM,56.3,9.7,16,30.21,10.0,WNW,18.4,25.3,N/A,,Clear,290,2014-01-19 20:15:00
1:35 PM,56.1,9.9,16,30.20,10.0,West,16.1,24.2,N/A,,Clear,270,2014-01-19 20:35:00
1:55 PM,56.5,9.5,15,30.19,10.0,West,11.5,20.7,N/A,,Clear,280,2014-01-19 20:55:00
2:15 PM,57.4,9.3,15,30.18,10.0,West,17.3,20.7,N/A,,Clear,280,2014-01-19 21:15:00
2:35 PM,56.8,8.4,15,30.18,10.0,West,17.3,26.5,N/A,,Clear,270,2014-01-19 21:35:00
2:55 PM,56.3,8.2,15,30.18,10.0,West,18.4,24.2,N/A,,Clear,280,2014-01-19 21:55:00
3:15 PM,56.1,8.2,15,30.17,10.0,West,18.4,23.0,N/A,,Clear,270,2014-01-19 22:15:00
3:35 PM,55.9,8.4,15,30.18,10.0,West,17.3,23.0,N/A,,Clear,280,2014-01-19 22:35:00
3:55 PM,55.2,8.8,16,30.18,10.0,West,16.1,20.7,N/A,,Clear,260,2014-01-19 22:55:00
4:15 PM,54.0,9.1,17,30.18,10.0,West,16.1,-,N/A,,Clear,270,2014-01-19 23:15:00
4:35 PM,52.3,9.3,18,30.17,10.0,West,16.1,-,N/A,,Clear,270,2014-01-19 23:35:00
4:55 PM,50.5,9.5,19,30.17,10.0,West,11.5,-,N/A,,Clear,270,2014-01-19 23:55:00
5:15 PM,47.1,9.5,22,30.17,10.0,West,12.7,-,N/A,,Clear,280,2014-01-20 00:15:00
5:55 PM,43.2,9.0,25,30.17,10.0,West,12.7,-,N/A,,Clear,280,2014-01-20 00:55:00
6:15 PM,38.8,8.2,28,30.19,10.0,NE,4.6,-,N/A,,Clear,50,2014-01-20 01:15:00
6:35 PM,36.7,8.6,31,30.20,10.0,Calm,Calm,-,N/A,,Clear,0,2014-01-20 01:35:00
6:55 PM,37.8,8.2,29,30.21,10.0,ESE,3.5,-,N/A,,Clear,110,2014-01-20 01:55:00
7:15 PM,38.1,8.8,30,30.20,10.0,WNW,5.8,-,N/A,,Clear,290,2014-01-20 02:15:00
7:35 PM,37.6,9.3,31,30.21,10.0,West,6.9,-,N/A,,Clear,280,2014-01-20 02:35:00
7:55 PM,33.4,8.1,35,30.21,10.0,Calm,Calm,-,N/A,,Clear,0,2014-01-20 02:55:00
8:15 PM,33.1,9.7,38,30.20,10.0,West,6.9,-,N/A,,Clear,270,2014-01-20 03:15:00
8:35 PM,32.2,8.4,37,30.20,10.0,WSW,5.8,-,N/A,,Clear,250,2014-01-20 03:35:00
8:55 PM,29.1,9.5,44,30.20,10.0,South,5.8,-,N/A,,Clear,180,2014-01-20 03:55:00
9:15 PM,34.5,10.4,37,30.20,10.0,West,10.4,-,N/A,,Clear,270,2014-01-20 04:15:00
9:35 PM,39.9,9.5,29,30.18,10.0,West,12.7,-,N/A,,Clear,280,2014-01-20 04:35:00
9:55 PM,38.3,9.3,30,30.19,10.0,NE,6.9,17.3,N/A,,Clear,50,2014-01-20 04:55:00
10:15 PM,32.9,8.4,36,30.19,10.0,NNW,5.8,-,N/A,,Clear,330,2014-01-20 05:15:00
10:35 PM,34.2,7.9,33,30.19,10.0,NNW,6.9,-,N/A,,Clear,340,2014-01-20 05:35:00
10:55 PM,30.7,7.9,38,30.19,10.0,Calm,Calm,-,N/A,,Clear,0,2014-01-20 05:55:00
11:15 PM,32.0,7.7,36,30.19,10.0,Calm,Calm,-,N/A,,Clear,0,2014-01-20 06:15:00
11:35 PM,33.1,7.5,34,30.18,10.0,Calm,Calm,-,N/A,,Clear,0,2014-01-20 06:35:00
11:55 PM,31.5,7.2,36,30.18,10.0,Calm,Calm,-,N/A,,Clear,0,2014-01-20 06:55:00